Time;durP1;ratioP1;P1;durP2;ratioP2;P2;SDS_P1;SDS_P2;PMS_P1;PMS_P2;Temp;Humidity;BMP_temperature;BMP_pressure;BME280_temperature;BME280_humidity;BME280_pressure;Samples;Min_cycle;Max_cycle;Signal;HPM_P1;HPM_P2
2022/04/03 00:02:12;;;;;;;13.23;6.07;;;;;;;0.57;nan;98035.72;4991988;28;20042;-60
2022/04/03 00:04:38;;;;;;;7.80;5.50;;;;;;;0.62;nan;98050.88;4989997;28;20038;-60
2022/04/03 00:07:04;;;;;;;8.93;6.53;;;;;;;0.56;nan;98045.75;4990671;28;20031;-59
2022/04/03 00:09:29;;;;;;;8.77;5.93;;;;;;;0.60;nan;98050.00;4997454;28;20040;-60
2022/04/03 00:11:55;;;;;;;10.33;6.80;;;;;;;0.53;nan;98039.03;4995441;28;20042;-60
2022/04/03 00:14:20;;;;;;;8.40;5.63;;;;;;;0.58;nan;98051.69;4991910;28;20089;-61
2022/04/03 00:16:46;;;;;;;6.53;5.50;;;;;;;0.60;nan;98055.91;4994995;28;20030;-59
2022/04/03 00:19:11;;;;;;;7.77;5.60;;;;;;;0.49;nan;98031.41;4995253;28;20036;-59
2022/04/03 00:21:37;;;;;;;8.30;5.80;;;;;;;0.56;nan;98049.13;4993040;28;20030;-59
2022/04/03 00:24:03;;;;;;;8.43;5.87;;;;;;;0.44;nan;98039.78;5000467;28;20034;-60
2022/04/03 00:26:29;;;;;;;8.33;5.93;;;;;;;0.55;nan;98047.47;4994753;28;20026;-60
2022/04/03 00:28:54;;;;;;;8.80;6.20;;;;;;;0.51;nan;98052.47;4995831;28;20400;-60
2022/04/03 00:31:20;;;;;;;10.30;6.40;;;;;;;0.50;nan;98059.19;4993558;28;20069;-59
2022/04/03 00:33:46;;;;;;;8.07;5.73;;;;;;;0.40;nan;98048.13;4992220;28;20038;-61
2022/04/03 00:36:11;;;;;;;8.73;5.93;;;;;;;0.45;nan;98055.75;4995037;28;20041;-61
2022/04/03 00:38:37;;;;;;;12.23;6.20;;;;;;;0.38;nan;98042.22;4995717;28;20029;-61
2022/04/03 00:41:03;;;;;;;7.67;6.40;;;;;;;0.34;nan;98055.59;4991962;28;20511;-61
2022/04/03 00:43:29;;;;;;;9.27;6.40;;;;;;;0.39;nan;98066.59;4993212;28;20065;-60
2022/04/03 00:45:55;;;;;;;10.80;5.77;;;;;;;0.29;nan;98052.22;4995125;28;20113;-60
2022/04/03 00:48:20;;;;;;;11.40;6.53;;;;;;;0.37;nan;98077.50;4996191;28;20034;-60
2022/04/03 00:50:46;;;;;;;10.70;6.60;;;;;;;0.35;nan;98076.63;4990934;28;20061;-60
2022/04/03 00:53:12;;;;;;;12.47;6.67;;;;;;;0.26;nan;98056.34;4993216;28;20084;-60
2022/04/03 00:55:42;;;;;;;10.23;6.43;;;;;;;0.24;nan;98060.53;4995783;28;20105;-61
2022/04/03 00:58:11;;;;;;;9.03;6.73;;;;;;;0.34;nan;98085.03;4993566;28;20046;-60
2022/04/03 01:00:37;;;;;;;10.23;6.20;;;;;;;0.38;nan;98061.56;4991823;28;20038;-59
2022/04/03 01:03:03;;;;;;;14.17;6.47;;;;;;;0.31;nan;98059.78;4992494;28;20486;-62
2022/04/03 01:05:29;;;;;;;12.57;5.93;;;;;;;0.40;nan;98075.00;4994431;28;20030;-59
2022/04/03 01:07:54;;;;;;;11.30;5.67;;;;;;;0.39;nan;98081.72;4994663;28;20111;-60
2022/04/03 01:10:20;;;;;;;8.23;6.27;;;;;;;0.34;nan;98070.72;4993601;28;20045;-60
2022/04/03 01:12:45;;;;;;;9.43;5.83;;;;;;;0.44;nan;98082.63;4994417;28;20581;-61
2022/04/03 01:15:14;;;;;;;10.03;7.00;;;;;;;0.42;nan;98084.28;4994503;28;20292;-60
2022/04/03 01:17:40;;;;;;;16.73;7.20;;;;;;;0.44;nan;98071.69;4992876;28;20038;-60
2022/04/03 01:20:06;;;;;;;14.37;5.97;;;;;;;0.46;nan;98090.22;4991328;28;20138;-60
2022/04/03 01:22:32;;;;;;;11.43;6.63;;;;;;;0.47;nan;98079.28;4993443;28;20030;-61
2022/04/03 01:24:58;;;;;;;10.53;6.63;;;;;;;0.36;nan;98076.66;4994244;28;20034;-60
2022/04/03 01:27:24;;;;;;;12.67;7.73;;;;;;;0.40;nan;98067.44;4993290;28;20042;-61
2022/04/03 01:29:52;;;;;;;11.73;6.67;;;;;;;0.49;nan;98085.22;4991065;28;20200;-61
2022/04/03 01:32:17;;;;;;;14.87;8.87;;;;;;;0.54;nan;98088.63;4994058;28;20074;-60
2022/04/03 01:34:43;;;;;;;13.47;7.30;;;;;;;0.42;nan;98078.41;4994861;28;20496;-60
2022/04/03 01:37:08;;;;;;;10.20;6.60;;;;;;;0.47;nan;98094.41;4992358;28;20117;-61
2022/04/03 01:39:34;;;;;;;12.97;8.23;;;;;;;0.44;nan;98089.34;4991585;28;20921;-62
2022/04/03 01:42:00;;;;;;;8.57;6.43;;;;;;;0.45;nan;98098.63;4994081;28;20034;-61
2022/04/03 01:44:26;;;;;;;10.87;7.20;;;;;;;0.36;nan;98084.22;4992461;28;20025;-61
2022/04/03 01:46:51;;;;;;;11.87;7.23;;;;;;;0.36;nan;98095.97;4992163;28;20065;-60
2022/04/03 01:49:17;;;;;;;14.17;7.03;;;;;;;0.32;nan;98090.06;4990573;28;20027;-59
2022/04/03 01:51:42;;;;;;;15.00;7.23;;;;;;;0.29;nan;98102.63;4993745;28;20208;-60
2022/04/03 01:54:08;;;;;;;11.67;7.23;;;;;;;0.23;nan;98092.44;4993413;28;20026;-61
2022/04/03 01:56:34;;;;;;;8.53;6.17;;;;;;;0.30;nan;98116.03;4991942;28;20034;-60
2022/04/03 01:59:01;;;;;;;11.87;6.80;;;;;;;0.36;nan;98088.41;4992221;28;20034;-60
2022/04/03 02:01:28;;;;;;;10.83;7.00;;;;;;;0.36;nan;98085.88;4993159;28;20040;-60
2022/04/03 02:03:54;;;;;;;9.87;6.30;;;;;;;0.29;nan;98086.66;4995533;28;20411;-61
2022/04/03 02:06:19;;;;;;;10.80;6.40;;;;;;;0.44;nan;98107.00;4991409;28;20341;-61
2022/04/03 02:08:45;;;;;;;11.37;7.90;;;;;;;0.47;nan;98103.69;4992717;28;20030;-61
2022/04/03 02:11:10;;;;;;;9.93;6.07;;;;;;;0.47;nan;98110.41;4993776;28;20068;-61
2022/04/03 02:13:36;;;;;;;11.73;6.63;;;;;;;0.52;nan;98112.13;4993327;28;20077;-61
2022/04/03 02:16:01;;;;;;;8.87;6.23;;;;;;;0.53;nan;98116.34;4990495;28;20568;-61
2022/04/03 02:18:26;;;;;;;9.10;5.87;;;;;;;0.56;nan;98113.84;4990494;28;20037;-61
2022/04/03 02:20:52;;;;;;;13.20;6.47;;;;;;;0.48;nan;98103.69;4992660;28;20041;-61
2022/04/03 02:23:18;;;;;;;11.87;6.17;;;;;;;0.63;nan;98108.06;4992261;28;20488;-61
2022/04/03 02:25:43;;;;;;;10.27;6.90;;;;;;;0.62;nan;98104.69;4990279;28;20412;-61
2022/04/03 02:28:12;;;;;;;11.80;6.57;;;;;;;0.67;nan;98122.41;4991863;28;20153;-61
2022/04/03 02:30:37;;;;;;;10.93;5.70;;;;;;;0.73;nan;98119.94;4993611;28;20513;-61
2022/04/03 02:33:03;;;;;;;10.10;6.37;;;;;;;0.74;nan;98126.69;4991947;28;20037;-61
2022/04/03 02:35:28;;;;;;;10.53;7.37;;;;;;;0.66;nan;98129.13;4989740;28;20112;-61
2022/04/03 02:37:54;;;;;;;7.97;6.60;;;;;;;0.70;nan;98124.97;4990775;28;20038;-61
2022/04/03 02:40:19;;;;;;;17.60;8.03;;;;;;;0.68;nan;98137.53;4992328;28;20034;-61
2022/04/03 02:42:45;;;;;;;11.03;6.57;;;;;;;0.61;nan;98123.19;4991965;28;20468;-60
2022/04/03 02:45:11;;;;;;;8.13;5.67;;;;;;;0.54;nan;98107.97;4989431;28;20092;-61
2022/04/03 02:47:37;;;;;;;8.07;7.23;;;;;;;0.67;nan;98142.59;4991836;28;20030;-61
2022/04/03 02:50:05;;;;;;;9.20;6.67;;;;;;;0.66;nan;98156.03;4991990;28;20115;-61
2022/04/03 02:52:30;;;;;;;12.97;7.43;;;;;;;0.62;nan;98127.41;4990480;28;20041;-60
2022/04/03 02:54:56;;;;;;;9.60;6.27;;;;;;;0.65;nan;98137.50;4989952;28;20038;-61
2022/04/03 02:57:22;;;;;;;10.63;6.00;;;;;;;0.71;nan;98144.31;4994321;28;20047;-61
2022/04/03 02:59:48;;;;;;;9.50;6.17;;;;;;;0.60;nan;98126.53;4992182;28;20078;-61
2022/04/03 03:02:13;;;;;;;8.23;5.70;;;;;;;0.70;nan;98151.03;4990039;28;20085;-60
2022/04/03 03:04:39;;;;;;;12.67;6.37;;;;;;;0.54;nan;98156.72;4989081;28;20485;-61
2022/04/03 03:07:05;;;;;;;11.80;5.53;;;;;;;0.64;nan;98160.19;4993346;28;20029;-60
2022/04/03 03:09:31;;;;;;;6.43;4.73;;;;;;;0.63;nan;98168.59;4992027;28;20082;-60
2022/04/03 03:12:00;;;;;;;9.40;5.13;;;;;;;0.59;nan;98164.34;4989521;28;20081;-61
2022/04/03 03:14:26;;;;;;;9.90;5.63;;;;;;;0.45;nan;98159.13;4990308;28;20057;-61
2022/04/03 03:16:52;;;;;;;8.87;5.53;;;;;;;0.44;nan;98163.31;4992818;28;20116;-61
2022/04/03 03:19:18;;;;;;;7.40;5.17;;;;;;;0.53;nan;98185.28;4992377;28;20034;-61
2022/04/03 03:21:43;;;;;;;10.13;6.80;;;;;;;0.36;nan;98176.66;4989383;28;20065;-61
2022/04/03 03:24:09;;;;;;;6.20;5.57;;;;;;;0.34;nan;98168.22;4990982;28;20034;-60
2022/04/03 03:26:35;;;;;;;10.77;6.20;;;;;;;0.44;nan;98187.69;4992699;28;20515;-60
2022/04/03 03:29:02;;;;;;;8.07;5.70;;;;;;;0.35;nan;98172.41;4992132;28;20547;-60
2022/04/03 03:31:27;;;;;;;8.07;5.73;;;;;;;0.40;nan;98171.66;4988687;28;20033;-59
2022/04/03 03:33:53;;;;;;;8.93;6.10;;;;;;;0.49;nan;98187.75;4990866;28;20033;-60
2022/04/03 03:36:18;;;;;;;9.20;5.87;;;;;;;0.56;nan;98199.59;4989903;28;20034;-60
2022/04/03 03:38:43;;;;;;;12.70;6.23;;;;;;;0.46;nan;98198.66;4990536;28;20501;-62
2022/04/03 03:41:09;;;;;;;10.37;5.70;;;;;;;0.37;nan;98176.69;4986238;28;20030;-60
2022/04/03 03:43:35;;;;;;;7.77;5.73;;;;;;;0.33;nan;98189.22;4989177;28;20100;-61
2022/04/03 03:46:01;;;;;;;12.03;7.50;;;;;;;0.44;nan;98202.81;4991024;28;20030;-61
2022/04/03 03:48:26;;;;;;;10.87;6.33;;;;;;;0.41;nan;98207.81;4989344;28;20042;-61
2022/04/03 03:50:52;;;;;;;8.70;6.47;;;;;;;0.41;nan;98210.34;4988512;28;20672;-62
2022/04/03 03:53:19;;;;;;;10.03;6.73;;;;;;;0.29;nan;98195.91;4990987;28;20083;-61
2022/04/03 03:55:44;;;;;;;10.53;6.93;;;;;;;0.38;nan;98223.72;4991137;28;20116;-61
2022/04/03 03:58:09;;;;;;;11.10;7.57;;;;;;;0.39;nan;98222.91;4987966;28;20080;-61
2022/04/03 04:00:35;;;;;;;8.40;5.83;;;;;;;0.37;nan;98234.66;4986908;28;20035;-60
2022/04/03 04:03:01;;;;;;;9.07;6.77;;;;;;;0.28;nan;98210.97;4991255;28;20030;-60
2022/04/03 04:05:27;;;;;;;8.90;6.63;;;;;;;0.26;nan;98207.56;4990241;28;20034;-61
2022/04/03 04:07:52;;;;;;;9.57;6.90;;;;;;;0.33;nan;98229.56;4989170;28;20028;-61
2022/04/03 04:10:18;;;;;;;8.90;6.70;;;;;;;0.30;nan;98229.47;4989049;28;20029;-61
2022/04/03 04:12:45;;;;;;;10.00;7.47;;;;;;;0.26;nan;98238.69;4990725;28;20038;-61
2022/04/03 04:15:12;;;;;;;9.13;6.93;;;;;;;0.18;nan;98225.13;4990840;28;20043;-61
2022/04/03 04:17:40;;;;;;;8.23;5.03;;;;;;;0.24;nan;98236.97;4989348;28;20041;-59
2022/04/03 04:20:07;;;;;;;11.90;7.20;;;;;;;0.33;nan;98254.75;4989265;28;20034;-61
2022/04/03 04:22:33;;;;;;;10.57;6.00;;;;;;;0.26;nan;98253.81;4992138;28;20034;-61
2022/04/03 04:24:58;;;;;;;10.53;6.83;;;;;;;0.31;nan;98251.34;4990257;28;20034;-60
2022/04/03 04:27:24;;;;;;;11.40;6.00;;;;;;;0.18;nan;98250.31;4990106;28;20041;-61
2022/04/03 04:29:49;;;;;;;15.27;8.17;;;;;;;0.27;nan;98264.72;4989902;28;20053;-60
2022/04/03 04:32:15;;;;;;;10.50;6.50;;;;;;;0.28;nan;98259.72;4991961;28;20030;-60
2022/04/03 04:34:40;;;;;;;9.17;6.20;;;;;;;0.31;nan;98262.28;4991357;28;20065;-61
2022/04/03 04:37:06;;;;;;;7.53;5.60;;;;;;;0.34;nan;98269.88;4988847;28;20388;-63
2022/04/03 04:39:32;;;;;;;9.27;5.40;;;;;;;0.25;nan;98269.78;4989577;28;20038;-61
2022/04/03 04:41:58;;;;;;;6.87;4.67;;;;;;;0.38;nan;98283.41;4992190;28;20080;-61
2022/04/03 04:44:23;;;;;;;11.53;6.53;;;;;;;0.30;nan;98254.69;4990912;28;20066;-62
2022/04/03 04:46:48;;;;;;;11.23;6.07;;;;;;;0.30;nan;98285.78;4987575;28;20038;-60
2022/04/03 04:49:16;;;;;;;9.37;5.43;;;;;;;0.29;nan;98286.63;4990437;28;20042;-61
2022/04/03 04:51:45;;;;;;;8.43;5.03;;;;;;;0.41;nan;98280.94;4991209;28;20057;-60
2022/04/03 04:54:10;;;;;;;10.40;4.37;;;;;;;0.45;nan;98286.03;4992252;28;20041;-60
2022/04/03 04:56:36;;;;;;;6.63;5.57;;;;;;;0.39;nan;98292.66;4993042;28;20096;-60
2022/04/03 04:59:02;;;;;;;7.80;5.33;;;;;;;0.39;nan;98269.97;5010205;28;20042;-61
2022/04/03 05:01:28;;;;;;;8.50;5.97;;;;;;;0.39;nan;98290.13;4995182;28;20442;-60
2022/04/03 05:03:53;;;;;;;12.37;6.67;;;;;;;0.51;nan;98300.41;4993223;28;20034;-60
2022/04/03 05:06:22;;;;;;;9.13;6.13;;;;;;;0.48;nan;98295.31;4992652;28;20458;-61
2022/04/03 05:08:49;;;;;;;7.30;5.27;;;;;;;0.46;nan;98284.38;4994589;28;20848;-61
2022/04/03 05:11:15;;;;;;;10.87;6.87;;;;;;;0.50;nan;98308.81;4995510;28;20046;-61
2022/04/03 05:13:42;;;;;;;11.30;6.83;;;;;;;0.45;nan;98301.19;4993024;28;20136;-61
2022/04/03 05:16:07;;;;;;;8.27;5.30;;;;;;;0.48;nan;98300.38;5000302;28;20088;-61
2022/04/03 05:18:35;;;;;;;8.17;5.50;;;;;;;0.37;nan;98296.84;4995823;28;20096;-61
2022/04/03 05:21:01;;;;;;;8.50;6.40;;;;;;;0.43;nan;98314.56;4997123;28;20034;-61
2022/04/03 05:23:27;;;;;;;9.50;6.00;;;;;;;0.36;nan;98303.53;4992358;28;20076;-61
2022/04/03 05:25:52;;;;;;;9.67;6.93;;;;;;;0.40;nan;98329.66;4992131;28;20030;-61
2022/04/03 05:28:18;;;;;;;8.40;6.50;;;;;;;0.44;nan;98338.97;4994113;28;20489;-60
2022/04/03 05:30:43;;;;;;;8.80;5.57;;;;;;;0.45;nan;98336.47;4994585;28;20041;-61
2022/04/03 05:33:09;;;;;;;9.53;7.10;;;;;;;0.43;nan;98332.22;4993227;28;20173;-61
2022/04/03 05:35:34;;;;;;;11.13;5.93;;;;;;;0.47;nan;98346.56;4992829;28;20026;-60
2022/04/03 05:38:00;;;;;;;7.37;6.43;;;;;;;0.42;nan;98355.75;4993772;28;20063;-61
2022/04/03 05:40:25;;;;;;;11.57;7.50;;;;;;;0.42;nan;98355.75;4994388;28;20473;-61
2022/04/03 05:42:51;;;;;;;9.73;7.33;;;;;;;0.43;nan;98345.66;4991262;28;20030;-57
2022/04/03 05:45:17;;;;;;;5.97;4.77;;;;;;;0.40;nan;98347.31;4993192;28;20132;-59
2022/04/03 05:47:43;;;;;;;6.07;5.47;;;;;;;0.47;nan;98354.13;4995194;28;20132;-58
2022/04/03 05:50:09;;;;;;;8.17;5.63;;;;;;;0.46;nan;98360.03;4994310;28;20100;-58
2022/04/03 05:52:39;;;;;;;8.80;5.97;;;;;;;0.47;nan;98357.50;4990465;28;20169;-59
2022/04/03 05:55:06;;;;;;;10.77;7.17;;;;;;;0.50;nan;98359.25;4993051;28;20030;-58
2022/04/03 05:57:31;;;;;;;9.63;6.13;;;;;;;0.47;nan;98363.41;4993688;28;20045;-58
2022/04/03 05:59:57;;;;;;;12.37;6.40;;;;;;;0.50;nan;98364.28;4992176;28;20045;-59
2022/04/03 06:02:22;;;;;;;10.83;5.50;;;;;;;0.53;nan;98369.38;4991882;28;20459;-62
2022/04/03 06:04:47;;;;;;;6.50;5.73;;;;;;;0.53;nan;98376.09;4992243;28;20048;-60
2022/04/03 06:07:13;;;;;;;7.23;5.87;;;;;;;0.44;nan;98359.97;4994072;28;20227;-59
2022/04/03 06:09:38;;;;;;;7.43;4.77;;;;;;;0.51;nan;98380.28;4992268;28;20026;-61
2022/04/03 06:12:04;;;;;;;8.10;5.10;;;;;;;0.56;nan;98389.59;4990708;28;20068;-58
2022/04/03 06:14:29;;;;;;;6.97;4.73;;;;;;;0.58;nan;98384.59;4993175;28;20069;-59
2022/04/03 06:16:55;;;;;;;8.13;5.37;;;;;;;0.60;nan;98391.34;4993787;28;20041;-58
2022/04/03 06:19:20;;;;;;;11.07;5.80;;;;;;;0.55;nan;98385.38;4993092;28;20387;-58
2022/04/03 06:21:46;;;;;;;9.60;5.30;;;;;;;0.74;nan;98396.59;4995931;28;20023;-59
2022/04/03 06:24:11;;;;;;;7.33;4.83;;;;;;;0.63;nan;98398.97;5002472;28;20050;-61
2022/04/03 06:26:36;;;;;;;6.53;5.03;;;;;;;0.76;nan;98408.44;5000795;28;20026;-63
2022/04/03 06:29:02;;;;;;;9.67;5.00;;;;;;;0.79;nan;98412.66;4993999;28;20073;-64
2022/04/03 06:31:27;;;;;;;8.63;4.23;;;;;;;0.75;nan;98411.78;4996436;28;20026;-61
2022/04/03 06:33:53;;;;;;;10.27;4.93;;;;;;;0.82;nan;98420.28;5000642;28;20022;-63
2022/04/03 06:36:18;;;;;;;8.23;5.37;;;;;;;0.86;nan;98420.34;5000135;28;20498;-63
2022/04/03 06:38:43;;;;;;;7.43;5.07;;;;;;;0.96;nan;98428.06;4996748;28;20041;-62
2022/04/03 06:41:09;;;;;;;6.87;4.67;;;;;;;0.86;nan;98440.53;4991933;28;20021;-60
2022/04/03 06:43:35;;;;;;;10.40;6.20;;;;;;;0.98;nan;98439.06;4994200;28;20135;-65
2022/04/03 06:46:01;;;;;;;8.77;5.23;;;;;;;1.01;nan;98437.44;4992860;28;20026;-62
2022/04/03 06:48:27;;;;;;;8.93;5.10;;;;;;;1.12;nan;98440.09;4990741;28;20026;-63
2022/04/03 06:50:52;;;;;;;9.00;4.90;;;;;;;0.94;nan;98443.19;4990631;28;20096;-62
2022/04/03 06:53:18;;;;;;;8.23;5.70;;;;;;;0.89;nan;98449.84;4993023;28;20026;-62
2022/04/03 06:55:43;;;;;;;8.10;5.50;;;;;;;0.93;nan;98450.75;4992243;28;20030;-63
2022/04/03 06:58:09;;;;;;;8.90;5.23;;;;;;;0.89;nan;98450.69;4990573;28;20026;-63
2022/04/03 07:00:37;;;;;;;8.13;4.67;;;;;;;0.94;nan;98460.84;4990911;28;20438;-63
2022/04/03 07:03:03;;;;;;;7.63;5.03;;;;;;;0.95;nan;98470.13;4993313;28;20030;-63
2022/04/03 07:05:29;;;;;;;7.80;4.13;;;;;;;0.85;nan;98459.03;4992338;28;20053;-63
2022/04/03 07:07:54;;;;;;;9.07;5.40;;;;;;;1.00;nan;98478.63;4991003;28;20026;-63
2022/04/03 07:10:20;;;;;;;12.47;5.23;;;;;;;0.99;nan;98460.91;4999302;28;20069;-63
2022/04/03 07:12:46;;;;;;;9.73;5.27;;;;;;;1.14;nan;98478.84;4993542;28;20483;-66
2022/04/03 07:15:12;;;;;;;11.23;4.80;;;;;;;1.30;nan;98490.88;4990186;28;21059;-63
2022/04/03 07:17:42;;;;;;;6.60;4.37;;;;;;;1.30;nan;98490.88;4990101;28;20045;-63
2022/04/03 07:20:09;;;;;;;6.77;4.90;;;;;;;1.21;nan;98495.78;4991210;28;20111;-62
2022/04/03 07:22:34;;;;;;;12.57;5.07;;;;;;;1.25;nan;98500.91;4991935;28;20074;-63
2022/04/03 07:25:00;;;;;;;7.50;5.00;;;;;;;1.19;nan;98512.59;4989435;28;20522;-63
2022/04/03 07:27:27;;;;;;;9.40;5.00;;;;;;;1.18;nan;98508.38;4988500;28;20034;-63
2022/04/03 07:29:52;;;;;;;7.53;5.33;;;;;;;1.06;nan;98506.47;4992472;28;20038;-63
2022/04/03 07:32:18;;;;;;;7.93;4.97;;;;;;;1.18;nan;98508.38;4992856;28;20128;-63
2022/04/03 07:34:43;;;;;;;5.93;5.00;;;;;;;1.28;nan;98513.56;4990056;28;20154;-62
2022/04/03 07:37:08;;;;;;;8.93;4.77;;;;;;;1.23;nan;98507.59;4990164;28;20035;-64
2022/04/03 07:39:34;;;;;;;7.13;5.30;;;;;;;1.30;nan;98518.66;4991589;28;20109;-63
2022/04/03 07:41:59;;;;;;;9.17;5.57;;;;;;;1.37;nan;98518.75;4991249;28;20030;-64
2022/04/03 07:44:25;;;;;;;10.23;6.03;;;;;;;1.42;nan;98498.63;4988893;28;20051;-63
2022/04/03 07:46:50;;;;;;;13.83;5.17;;;;;;;1.51;nan;98538.34;4988753;28;20058;-61
2022/04/03 07:49:16;;;;;;;10.03;5.73;;;;;;;1.59;nan;98521.59;4992418;28;20033;-63
2022/04/03 07:51:42;;;;;;;8.50;4.47;;;;;;;1.60;nan;98533.41;4991811;28;20038;-62
2022/04/03 07:54:07;;;;;;;12.00;5.70;;;;;;;1.70;nan;98523.44;4988314;28;20435;-64
2022/04/03 07:56:33;;;;;;;6.53;4.70;;;;;;;1.93;nan;98544.00;4990296;28;20040;-64
2022/04/03 07:58:58;;;;;;;10.07;5.00;;;;;;;1.72;nan;98548.75;4991527;28;20479;-63
2022/04/03 08:01:24;;;;;;;9.70;5.10;;;;;;;1.84;nan;98542.19;4992962;28;20399;-63
2022/04/03 08:03:49;;;;;;;8.93;5.00;;;;;;;1.72;nan;98547.06;4989724;28;20568;-64
2022/04/03 08:06:15;;;;;;;11.17;4.80;;;;;;;1.71;nan;98563.06;4989994;28;20072;-63
2022/04/03 08:08:41;;;;;;;7.33;4.33;;;;;;;1.64;nan;98551.19;4992328;28;20030;-63
2022/04/03 08:11:08;;;;;;;10.43;5.80;;;;;;;1.93;nan;98556.63;4992500;28;20068;-64
2022/04/03 08:13:33;;;;;;;9.83;4.87;;;;;;;1.94;nan;98572.66;4989413;28;20145;-63
2022/04/03 08:16:01;;;;;;;8.10;5.13;;;;;;;1.85;nan;98563.25;4991557;28;20159;-63
2022/04/03 08:18:26;;;;;;;6.93;4.53;;;;;;;2.18;nan;98570.44;4991664;28;20026;-64
2022/04/03 08:20:52;;;;;;;9.80;5.03;;;;;;;2.31;nan;98582.44;4990836;28;20097;-64
2022/04/03 08:23:17;;;;;;;9.27;4.33;;;;;;;1.87;nan;98578.47;4990295;28;20022;-63
2022/04/03 08:25:45;;;;;;;8.40;5.33;;;;;;;2.07;nan;98577.91;4992272;28;20036;-63
2022/04/03 08:28:10;;;;;;;22.57;8.93;;;;;;;2.42;nan;98585.94;4992583;28;20049;-66
2022/04/03 08:30:37;;;;;;;16.80;9.83;;;;;;;2.57;nan;98578.53;4993991;28;20193;-64
2022/04/03 08:33:06;;;;;;;9.90;5.17;;;;;;;2.24;nan;98578.97;4993167;28;20586;-63
2022/04/03 08:35:32;;;;;;;6.93;5.20;;;;;;;2.41;nan;98601.09;4994592;28;20509;-62
2022/04/03 08:37:59;;;;;;;24.70;13.33;;;;;;;2.61;nan;98603.06;4994771;28;20026;-63
2022/04/03 08:40:26;;;;;;;10.47;6.80;;;;;;;2.70;nan;98598.09;4993379;28;20037;-65
2022/04/03 08:42:54;;;;;;;10.33;6.57;;;;;;;2.71;nan;98604.00;4992938;28;20054;-65
2022/04/03 08:45:21;;;;;;;7.83;4.77;;;;;;;2.60;nan;98603.88;4995239;28;20472;-65
2022/04/03 08:47:50;;;;;;;9.83;5.93;;;;;;;2.61;nan;98615.69;4995286;28;20038;-64
2022/04/03 08:50:17;;;;;;;10.17;5.43;;;;;;;2.57;nan;98593.72;4992340;28;20030;-63
2022/04/03 08:52:51;;;;;;;9.47;5.20;;;;;;;3.02;nan;98616.16;4992891;28;20034;-63
2022/04/03 08:55:19;;;;;;;7.53;5.47;;;;;;;3.10;nan;98595.97;4996077;28;20022;-63
2022/04/03 08:57:45;;;;;;;8.83;5.53;;;;;;;2.81;nan;98592.28;4995286;28;20038;-63
2022/04/03 09:00:14;;;;;;;11.43;5.63;;;;;;;3.11;nan;98607.81;4992718;28;20045;-63
2022/04/03 09:02:47;;;;;;;9.90;6.47;;;;;;;3.02;nan;98615.31;4992718;28;20126;-63
2022/04/03 09:05:14;;;;;;;7.17;4.93;;;;;;;3.09;nan;98627.22;4991509;28;20030;-63
2022/04/03 09:07:40;;;;;;;8.93;5.33;;;;;;;3.18;nan;98617.19;4993192;28;20073;-63
2022/04/03 09:10:12;;;;;;;11.63;5.97;;;;;;;3.30;nan;98611.38;4995431;28;20026;-63
2022/04/03 09:12:45;;;;;;;10.03;6.13;;;;;;;3.31;nan;98618.97;4994134;28;20130;-63
2022/04/03 09:15:14;;;;;;;10.50;5.87;;;;;;;3.55;nan;98614.16;4990216;28;20623;-62
2022/04/03 09:17:44;;;;;;;11.20;6.83;;;;;;;3.60;nan;98614.19;4993451;28;20547;-61
2022/04/03 09:20:14;;;;;;;6.93;5.33;;;;;;;4.11;nan;98613.72;4997178;28;20045;-61
2022/04/03 09:22:45;;;;;;;7.97;5.87;;;;;;;3.95;nan;98592.47;4993634;28;20880;-62
2022/04/03 10:02:14;;;;;;;10.80;6.67;;;;;;;3.12;nan;98639.91;4985701;28;20049;-62
2022/04/03 10:04:39;;;;;;;7.13;5.17;;;;;;;3.14;nan;98649.19;4991208;28;20353;-62
2022/04/03 10:07:06;;;;;;;12.03;6.53;;;;;;;3.22;nan;98650.13;4993376;28;20030;-62
2022/04/03 10:09:32;;;;;;;7.97;5.60;;;;;;;3.30;nan;98642.63;4976509;28;20555;-62
2022/04/03 10:11:57;;;;;;;6.97;5.67;;;;;;;3.29;nan;98637.53;4979738;28;20146;-62
2022/04/03 10:14:26;;;;;;;6.07;5.47;;;;;;;3.23;nan;98649.31;4979583;28;20598;-62
2022/04/03 10:16:51;;;;;;;8.53;6.33;;;;;;;3.31;nan;98649.38;4979720;28;20474;-62
2022/04/03 10:19:17;;;;;;;9.23;5.57;;;;;;;3.35;nan;98647.75;4975076;28;20085;-63
2022/04/03 10:21:52;;;;;;;7.47;6.17;;;;;;;2.95;nan;98647.31;4971659;28;20068;-63
2022/04/03 10:24:21;;;;;;;10.80;5.57;;;;;;;2.82;nan;98658.13;4991870;28;20120;-62
2022/04/03 10:26:57;;;;;;;10.80;6.50;;;;;;;2.51;nan;98644.25;4993574;28;20045;-61
2022/04/03 10:29:24;;;;;;;11.40;7.10;;;;;;;2.36;nan;98646.56;4991293;28;20504;-61
2022/04/03 10:32:03;;;;;;;8.60;5.57;;;;;;;2.41;nan;98665.22;4991089;28;20026;-61
2022/04/03 10:34:30;;;;;;;8.77;6.30;;;;;;;2.52;nan;98666.19;4993938;28;20141;-63
2022/04/03 10:36:56;;;;;;;8.60;5.60;;;;;;;2.46;nan;98650.91;4990543;28;20416;-62
2022/04/03 10:39:24;;;;;;;10.40;6.97;;;;;;;2.57;nan;98658.66;4991162;28;20025;-62
2022/04/03 10:41:50;;;;;;;14.57;7.87;;;;;;;2.81;nan;98664.03;4988618;28;20034;-62
2022/04/03 10:44:24;;;;;;;10.87;7.00;;;;;;;2.70;nan;98658.84;4991323;28;20033;-61
2022/04/03 10:47:01;;;;;;;14.37;7.87;;;;;;;2.99;nan;98666.78;4992285;28;20090;-61
2022/04/03 10:49:42;;;;;;;8.93;6.40;;;;;;;2.72;nan;98667.28;4990749;28;20109;-60
2022/04/03 10:52:10;;;;;;;15.70;9.50;;;;;;;3.06;nan;98668.53;4988456;28;20038;-60
2022/04/03 10:54:49;;;;;;;8.70;7.57;;;;;;;3.46;nan;98666.44;4991494;28;20061;-58
2022/04/03 10:57:34;;;;;;;10.50;6.50;;;;;;;3.63;nan;98673.34;4990599;28;20157;-59
2022/04/03 11:00:11;;;;;;;8.57;6.88;;;;;;;3.43;nan;98674.88;4992473;28;20033;-58
2022/04/03 11:02:44;;;;;;;8.70;6.53;;;;;;;3.47;nan;98684.19;4991287;28;20472;-59
2022/04/03 11:05:22;;;;;;;9.87;6.60;;;;;;;3.76;nan;98668.38;4993432;28;20038;-59
2022/04/03 11:07:48;;;;;;;10.47;6.10;;;;;;;3.52;nan;98674.91;4989352;28;20042;-59
2022/04/03 11:10:13;;;;;;;10.47;7.03;;;;;;;3.25;nan;98669.59;4990546;28;20030;-58
2022/04/03 11:12:55;;;;;;;10.93;8.13;;;;;;;3.49;nan;98662.22;4993065;28;20049;-61
2022/04/03 11:15:23;;;;;;;9.50;5.83;;;;;;;3.14;nan;98673.72;4990615;28;20504;-61
2022/04/03 11:17:52;;;;;;;9.23;6.63;;;;;;;2.98;nan;98680.25;4989802;28;20380;-64
2022/04/03 11:20:29;;;;;;;15.23;7.60;;;;;;;3.05;nan;98682.06;4990906;28;20773;-59
2022/04/03 11:22:57;;;;;;;7.87;5.63;;;;;;;2.90;nan;98691.97;4992471;28;20076;-61
2022/04/03 11:25:22;;;;;;;10.67;7.30;;;;;;;2.97;nan;98687.88;4988666;28;20027;-61
2022/04/03 11:27:49;;;;;;;8.83;6.30;;;;;;;2.93;nan;98679.34;4988877;28;20030;-61
2022/04/03 11:30:15;;;;;;;9.00;6.37;;;;;;;2.75;nan;98690.13;4990003;28;20157;-61
2022/04/03 11:32:41;;;;;;;8.93;6.10;;;;;;;2.70;nan;98683.31;4991383;28;20377;-60
2022/04/03 11:35:09;;;;;;;11.37;6.27;;;;;;;2.86;nan;98691.94;4989655;28;20034;-61
2022/04/03 11:37:34;;;;;;;15.13;8.83;;;;;;;2.94;nan;98677.69;4989311;28;20038;-61
2022/04/03 11:40:00;;;;;;;11.83;7.43;;;;;;;3.19;nan;98675.44;4992057;28;20061;-60
2022/04/03 11:42:25;;;;;;;7.53;5.83;;;;;;;3.26;nan;98683.97;4992265;28;20022;-61
2022/04/03 11:44:52;;;;;;;7.73;5.47;;;;;;;3.22;nan;98672.94;4990730;28;20033;-61
2022/04/03 11:47:24;;;;;;;7.57;5.70;;;;;;;3.12;nan;98683.81;4987973;28;20022;-61
2022/04/03 11:50:05;;;;;;;7.53;5.47;;;;;;;3.42;nan;98679.91;4991831;28;20352;-62
2022/04/03 11:52:30;;;;;;;12.00;7.67;;;;;;;3.73;nan;98691.19;4992860;28;20097;-61
2022/04/03 11:54:56;;;;;;;7.00;6.20;;;;;;;3.72;nan;98682.72;4989470;28;20528;-61
2022/04/03 11:57:21;;;;;;;7.83;5.47;;;;;;;3.66;nan;98673.38;4988809;28;20045;-61
2022/04/03 11:59:48;;;;;;;7.30;5.50;;;;;;;3.65;nan;98675.88;4992016;28;20394;-60
2022/04/03 12:02:15;;;;;;;8.17;6.03;;;;;;;3.51;nan;98687.59;4996038;28;20113;-60
2022/04/03 12:04:42;;;;;;;8.63;5.70;;;;;;;3.52;nan;98672.38;4992683;28;20037;-61
2022/04/03 12:07:13;;;;;;;8.60;6.57;;;;;;;3.53;nan;98680.84;4993122;28;20038;-61
2022/04/03 12:09:41;;;;;;;8.37;6.40;;;;;;;3.54;nan;98673.28;4994087;28;20037;-61
2022/04/03 12:12:07;;;;;;;9.03;5.47;;;;;;;3.79;nan;98665.88;4993843;28;20087;-61
2022/04/03 12:14:35;;;;;;;7.60;6.13;;;;;;;4.02;nan;98650.00;4992588;28;20427;-61
2022/04/03 12:17:06;;;;;;;11.87;5.23;;;;;;;4.22;nan;98672.13;4994201;28;20145;-62
2022/04/03 12:19:39;;;;;;;9.30;5.07;;;;;;;3.57;nan;98668.22;4993575;28;20558;-61
2022/04/03 12:22:08;;;;;;;7.53;5.70;;;;;;;3.68;nan;98679.31;4993463;28;20037;-61
2022/04/03 12:24:35;;;;;;;8.63;5.37;;;;;;;3.75;nan;98671.75;4991026;28;20419;-61
2022/04/03 12:27:12;;;;;;;8.37;5.70;;;;;;;3.91;nan;98676.09;4993855;28;20604;-62
2022/04/03 12:29:40;;;;;;;10.67;6.60;;;;;;;3.88;nan;98674.41;4993709;28;20045;-62
2022/04/03 12:32:12;;;;;;;7.47;6.50;;;;;;;4.02;nan;98677.06;4993176;28;20045;-61